Hovedside
METAR-TAF:

METAR-TAF

Lufthavner :

Lycksele, Sverige

Lycksele lufthavn

breddegrad: 64-32-51N, lengdegrad: 018-43-03E, høyde over havet: 211 m

Gjeldene værobservasjon

Denne rapporten ble laget for 10 minutter siden, klokken 21:20 UTC
Flau vind
Temperatur -30°C
Luftfuktighet 68%
Trykk 1045 hPa
Sikt: 5000 m

METAR: ESNL 242120Z AUTO 00000KT 5000 FEW003/// BKN011/// M30/M34 Q1045

Tid: 22:30 (21:30 UTC)


TAF: fraværende

Værobservasjoner og værvarsel for over 4000 flyplasser (METAR- og TAF-rapporter).

Tilgjengelige stasjoner er representert av de røde og gule prikkene på kartet.

Hold musepekeren over prikken for å se navnet på stasjonen.

Klikk så for å se værobservasjoner og -varsler.

For å forandre kartet kan du klikke på den grønne knappen med svart kryss for å zoome inn, på den grønne knappen med strek for å zoome ut, eller på de grønne pilene for å se tilstøtende kart.


METAR-TAF: